Webb, Canada
Current Conditions -  °F | °C
As of 2:00 PM on Thursday 29 Jan 2015 (Local Time) from CYYN Reporting Station
Clear Clear  
Wind Chill: 16°   Ceiling: Unl
Heat Index: 28°   Visibility: 9mi
Dew Point: 27°   Wind: 17mph
Humidity: 93%   Direction: 170°S
Pressure: 30.27"   Gusts: NA
Location:  50.18°N, 108.2°W
Report Text: CYYN 292000Z AUTO 17015KT 9SM CLR M02/M03 A3027 RMK PRESFR SLP293
Loading
Personal Weather Stations






























Interactive Weather Map New forecast layout! Learn more

10-Day Weather Forecast

Advertisements
Track Severe Weather on mobile